Time;durP1;ratioP1;P1;durP2;ratioP2;P2;SDS_P1;SDS_P2;PMS_P1;PMS_P2;Temp;Humidity;BMP_temperature;BMP_pressure;BME280_temperature;BME280_humidity;BME280_pressure;Samples;Min_cycle;Max_cycle;Signal;HPM_P1;HPM_P2
2022/08/27 00:00:42;;;;;;;20.60;12.00;;;19.60;99.90;;;;;;5062897;28;20197;-48
2022/08/27 00:03:09;;;;;;;21.77;12.10;;;19.60;99.90;;;;;;5065706;28;20209;-45
2022/08/27 00:05:36;;;;;;;23.47;12.27;;;19.60;99.90;;;;;;5061964;28;20191;-45
2022/08/27 00:08:04;;;;;;;20.03;12.87;;;19.50;99.90;;;;;;5083135;28;20247;-47
2022/08/27 00:10:33;;;;;;;20.90;12.77;;;19.50;99.90;;;;;;5067851;28;20202;-52
2022/08/27 00:13:01;;;;;;;23.30;13.50;;;19.50;99.90;;;;;;5076260;28;20703;-45
2022/08/27 00:15:28;;;;;;;23.83;13.07;;;19.50;99.90;;;;;;5075236;28;20737;-50
2022/08/27 00:17:55;;;;;;;22.47;13.40;;;19.50;99.90;;;;;;5084696;28;20552;-50
2022/08/27 00:20:24;;;;;;;30.10;13.07;;;19.50;99.90;;;;;;5075084;28;20244;-49
2022/08/27 00:22:52;;;;;;;25.27;14.27;;;19.50;99.90;;;;;;5071708;28;20213;-50
2022/08/27 00:25:20;;;;;;;20.67;13.40;;;19.50;99.90;;;;;;5058599;28;20199;-49
2022/08/27 00:27:48;;;;;;;20.10;13.27;;;19.40;99.90;;;;;;5071658;28;20270;-46
2022/08/27 00:30:17;;;;;;;19.60;11.83;;;19.40;99.90;;;;;;5068311;28;20195;-45
2022/08/27 00:32:45;;;;;;;21.43;13.27;;;19.40;99.90;;;;;;5061379;28;20221;-50
2022/08/27 00:35:14;;;;;;;23.53;13.10;;;19.40;99.90;;;;;;5083357;28;20611;-48
2022/08/27 00:37:42;;;;;;;23.73;12.17;;;19.40;99.90;;;;;;5081422;28;20302;-45
2022/08/27 00:40:13;;;;;;;20.23;11.97;;;19.40;99.90;;;;;;5084832;28;20247;-46
2022/08/27 00:42:41;;;;;;;26.80;13.13;;;19.40;99.90;;;;;;5056889;28;20215;-50
2022/08/27 00:45:10;;;;;;;24.17;13.27;;;19.40;99.90;;;;;;5077506;28;20202;-47
2022/08/27 00:47:42;;;;;;;21.87;13.43;;;19.30;99.90;;;;;;5065720;28;20914;-48
2022/08/27 00:50:13;;;;;;;24.63;13.50;;;19.30;99.90;;;;;;5075041;28;20194;-46
2022/08/27 00:52:45;;;;;;;20.43;13.77;;;19.30;99.90;;;;;;5078384;28;20210;-46
2022/08/27 00:55:14;;;;;;;21.43;14.37;;;19.30;99.90;;;;;;5083801;28;20209;-45
2022/08/27 00:57:43;;;;;;;22.00;13.63;;;19.20;99.90;;;;;;5061396;28;20230;-45
2022/08/27 01:00:16;;;;;;;24.83;14.17;;;19.20;99.90;;;;;;5076008;28;20201;-50
2022/08/27 01:02:45;;;;;;;24.00;13.97;;;19.20;99.90;;;;;;5061229;28;20219;-46
2022/08/27 01:05:15;;;;;;;27.20;14.60;;;19.20;99.90;;;;;;5067243;28;20217;-50
2022/08/27 01:07:47;;;;;;;25.90;13.80;;;19.20;99.90;;;;;;5074656;28;20866;-46
2022/08/27 01:10:18;;;;;;;28.13;14.50;;;19.10;99.90;;;;;;5078662;28;20319;-49
2022/08/27 01:12:45;;;;;;;22.90;14.07;;;19.10;99.90;;;;;;5061603;28;20215;-45
2022/08/27 01:15:16;;;;;;;24.27;13.77;;;19.10;99.90;;;;;;5057375;28;20205;-50
2022/08/27 01:17:45;;;;;;;24.47;14.90;;;19.00;99.90;;;;;;5072198;28;20245;-49
2022/08/27 01:20:17;;;;;;;26.33;14.70;;;19.00;99.90;;;;;;5070726;28;20261;-46
2022/08/27 01:22:53;;;;;;;27.83;14.47;;;19.20;99.90;;;;;;5073265;28;20576;-47
2022/08/27 01:25:23;;;;;;;27.13;14.00;;;19.10;99.90;;;;;;5062700;28;20212;-51
2022/08/27 01:27:50;;;;;;;22.73;14.27;;;19.30;99.90;;;;;;5062896;28;20244;-45
2022/08/27 01:30:20;;;;;;;24.77;14.13;;;18.90;99.90;;;;;;5062987;28;20206;-46
2022/08/27 01:32:48;;;;;;;20.03;13.60;;;19.10;99.90;;;;;;5065258;28;20287;-47
2022/08/27 01:35:17;;;;;;;23.33;13.80;;;19.00;99.90;;;;;;5063175;28;20268;-51
2022/08/27 01:37:48;;;;;;;21.93;13.83;;;19.20;99.90;;;;;;5061254;28;20277;-47
2022/08/27 01:40:16;;;;;;;22.10;13.30;;;18.90;99.90;;;;;;5076088;28;20194;-49
2022/08/27 01:42:46;;;;;;;24.57;14.23;;;19.00;99.90;;;;;;5078057;28;20225;-46
2022/08/27 01:45:16;;;;;;;24.07;13.83;;;19.30;99.90;;;;;;5066304;28;20224;-48
2022/08/27 01:47:43;;;;;;;22.37;13.13;;;19.30;99.90;;;;;;5071977;28;20272;-48
2022/08/27 01:50:14;;;;;;;26.67;13.87;;;19.00;99.90;;;;;;5073272;28;20295;-46
2022/08/27 01:52:40;;;;;;;24.13;14.27;;;19.20;99.90;;;;;;5060381;28;20206;-48
2022/08/27 01:55:10;;;;;;;27.13;14.33;;;19.10;99.90;;;;;;5063021;28;20198;-45
2022/08/27 01:57:38;;;;;;;21.00;14.30;;;18.90;99.90;;;;;;5060171;28;20222;-50
2022/08/27 02:00:11;;;;;;;26.27;15.80;;;19.10;99.90;;;;;;5056469;28;20205;-47
2022/08/27 02:02:39;;;;;;;25.83;14.03;;;19.10;99.90;;;;;;5072908;28;20271;-48
2022/08/27 02:05:07;;;;;;;26.77;15.10;;;19.10;99.90;;;;;;5064791;28;20198;-45
2022/08/27 02:07:33;;;;;;;25.27;14.07;;;19.10;99.90;;;;;;5059571;28;20773;-46
2022/08/27 02:10:00;;;;;;;24.83;13.30;;;19.10;99.90;;;;;;5079935;28;20205;-47
2022/08/27 02:12:27;;;;;;;22.20;13.33;;;19.00;99.90;;;;;;5070553;28;20218;-51
2022/08/27 02:14:54;;;;;;;24.90;13.00;;;19.10;99.90;;;;;;5062125;28;20571;-47
2022/08/27 02:17:22;;;;;;;23.27;13.23;;;19.00;99.90;;;;;;5062158;28;20221;-49
2022/08/27 02:19:49;;;;;;;19.57;13.13;;;19.10;99.90;;;;;;5070692;28;20199;-47
2022/08/27 02:22:16;;;;;;;26.67;14.37;;;19.10;99.90;;;;;;5064723;28;20225;-48
2022/08/27 02:24:43;;;;;;;25.57;13.00;;;19.10;99.90;;;;;;5059152;28;20674;-44
2022/08/27 02:27:10;;;;;;;26.43;13.17;;;19.00;99.90;;;;;;5063823;28;20197;-47
2022/08/27 02:29:38;;;;;;;23.87;13.20;;;19.00;99.90;;;;;;5059447;28;20260;-45
2022/08/27 02:32:05;;;;;;;21.17;12.30;;;19.00;99.90;;;;;;5051635;28;20726;-45
2022/08/27 02:34:33;;;;;;;24.60;13.50;;;19.00;99.90;;;;;;5066780;28;20198;-49
2022/08/27 02:37:00;;;;;;;20.17;12.20;;;18.90;99.90;;;;;;5062844;28;20211;-46
2022/08/27 02:39:28;;;;;;;18.20;12.17;;;18.90;99.90;;;;;;5067853;28;20195;-46
2022/08/27 02:41:55;;;;;;;20.60;11.97;;;19.00;99.90;;;;;;5064587;28;20218;-48
2022/08/27 02:44:22;;;;;;;27.73;13.33;;;19.00;99.90;;;;;;5060868;28;20261;-44
2022/08/27 02:46:48;;;;;;;23.57;13.43;;;18.90;99.90;;;;;;5061642;28;20183;-49
2022/08/27 02:49:15;;;;;;;24.03;12.93;;;18.90;99.90;;;;;;5056174;28;20264;-47
2022/08/27 02:51:43;;;;;;;26.77;12.57;;;18.90;99.90;;;;;;5063881;28;20214;-45
2022/08/27 02:54:11;;;;;;;24.23;12.73;;;18.90;99.90;;;;;;5062298;28;20199;-45
2022/08/27 02:56:38;;;;;;;23.37;13.17;;;19.00;99.90;;;;;;5059266;28;20194;-49
2022/08/27 02:59:05;;;;;;;24.70;13.67;;;19.00;99.90;;;;;;5063559;28;20202;-49
2022/08/27 03:01:32;;;;;;;25.27;13.27;;;18.90;99.90;;;;;;5059545;28;20230;-49
2022/08/27 03:03:59;;;;;;;25.00;12.63;;;18.90;99.90;;;;;;5053715;28;20725;-45
2022/08/27 03:06:26;;;;;;;21.90;13.07;;;18.80;99.90;;;;;;5070362;28;20199;-47
2022/08/27 03:08:54;;;;;;;21.50;12.77;;;18.80;99.90;;;;;;5069186;28;20206;-44
2022/08/27 03:11:22;;;;;;;21.97;14.33;;;18.80;99.90;;;;;;5073684;28;20770;-45
2022/08/27 03:13:49;;;;;;;20.73;12.90;;;18.80;99.90;;;;;;5074329;28;20191;-50
2022/08/27 03:16:16;;;;;;;24.07;13.40;;;18.70;99.90;;;;;;5072032;28;20218;-45
2022/08/27 03:18:43;;;;;;;26.47;13.43;;;18.70;99.90;;;;;;5074444;28;20221;-46
2022/08/27 03:21:16;;;;;;;24.77;14.27;;;18.80;99.90;;;;;;5060415;28;20218;-48
2022/08/27 03:23:43;;;;;;;24.23;13.70;;;18.80;99.90;;;;;;5062429;28;20209;-45
2022/08/27 03:26:12;;;;;;;28.43;13.83;;;18.70;99.90;;;;;;5072690;28;20199;-46
2022/08/27 03:28:38;;;;;;;22.23;12.43;;;18.70;99.90;;;;;;5072496;28;20178;-44
2022/08/27 03:31:08;;;;;;;21.97;12.80;;;18.70;99.90;;;;;;5066772;28;20242;-45
2022/08/27 03:33:38;;;;;;;22.97;12.37;;;18.70;99.90;;;;;;5061337;28;20195;-44
2022/08/27 03:36:07;;;;;;;22.93;12.60;;;18.70;99.90;;;;;;5058385;28;20202;-48
2022/08/27 03:38:35;;;;;;;19.83;12.87;;;18.70;99.90;;;;;;5069462;28;20226;-44
2022/08/27 03:41:02;;;;;;;20.90;12.20;;;18.70;99.90;;;;;;5066634;28;20199;-46
2022/08/27 03:43:30;;;;;;;22.33;12.97;;;18.70;99.90;;;;;;5070275;28;20214;-45
2022/08/27 03:45:57;;;;;;;21.87;12.53;;;18.70;99.90;;;;;;5066759;28;20663;-49
2022/08/27 03:48:24;;;;;;;19.20;12.17;;;18.60;99.90;;;;;;5068759;28;20320;-46
2022/08/27 03:50:51;;;;;;;21.37;12.53;;;18.60;99.90;;;;;;5066450;28;20866;-44
2022/08/27 03:53:20;;;;;;;22.70;13.13;;;18.60;99.90;;;;;;5070443;28;20195;-47
2022/08/27 03:55:47;;;;;;;24.03;11.77;;;18.60;99.90;;;;;;5073937;28;20222;-46
2022/08/27 03:58:16;;;;;;;19.10;12.83;;;18.60;99.90;;;;;;5066110;28;20218;-47
2022/08/27 04:00:44;;;;;;;21.13;12.70;;;18.60;99.90;;;;;;5056882;28;20276;-45
2022/08/27 04:03:13;;;;;;;17.80;11.87;;;18.70;99.90;;;;;;5070103;28;20194;-46
2022/08/27 04:05:41;;;;;;;20.70;12.13;;;18.70;99.90;;;;;;5072216;28;20210;-48
2022/08/27 04:08:09;;;;;;;20.87;12.57;;;18.70;99.90;;;;;;5064634;28;20202;-47
2022/08/27 04:10:38;;;;;;;25.07;13.33;;;18.70;99.90;;;;;;5063054;28;20195;-49
2022/08/27 04:13:06;;;;;;;21.53;12.80;;;18.60;99.90;;;;;;5071320;28;20528;-45
2022/08/27 04:15:33;;;;;;;21.40;12.40;;;18.60;99.90;;;;;;5058253;28;20209;-45
2022/08/27 04:18:01;;;;;;;20.87;12.10;;;18.60;99.90;;;;;;5084352;28;20267;-46
2022/08/27 04:20:28;;;;;;;20.70;11.87;;;18.60;99.90;;;;;;5060330;28;20285;-46
2022/08/27 04:22:55;;;;;;;17.13;12.07;;;18.60;99.90;;;;;;5065045;28;20218;-47
2022/08/27 04:25:22;;;;;;;23.43;11.87;;;18.60;99.90;;;;;;5070318;28;20550;-46
2022/08/27 04:27:49;;;;;;;18.73;11.60;;;18.60;99.90;;;;;;5074849;28;20278;-45
2022/08/27 04:30:18;;;;;;;18.03;11.50;;;18.60;99.90;;;;;;5064624;28;20199;-45
2022/08/27 04:32:45;;;;;;;20.93;11.73;;;18.60;99.90;;;;;;5074267;28;20245;-49
2022/08/27 04:35:13;;;;;;;18.20;10.97;;;18.60;99.90;;;;;;5077433;28;20198;-46
2022/08/27 04:37:40;;;;;;;18.10;12.90;;;18.60;99.90;;;;;;5075300;28;20326;-45
2022/08/27 04:40:07;;;;;;;17.77;11.33;;;18.60;99.90;;;;;;5067936;28;20663;-47
2022/08/27 04:42:34;;;;;;;18.63;12.63;;;18.60;99.90;;;;;;5058601;28;20810;-45
2022/08/27 04:45:02;;;;;;;18.63;12.67;;;18.60;99.90;;;;;;5081105;28;20647;-45
2022/08/27 04:47:29;;;;;;;20.53;12.53;;;18.50;99.90;;;;;;5066121;28;20278;-48
2022/08/27 04:49:56;;;;;;;18.43;12.50;;;18.50;99.90;;;;;;5079127;28;20255;-44
2022/08/27 04:52:24;;;;;;;19.37;12.50;;;18.50;99.90;;;;;;5062186;28;20223;-45
2022/08/27 04:54:51;;;;;;;23.63;12.93;;;18.50;99.90;;;;;;5060321;28;20210;-48
2022/08/27 04:57:18;;;;;;;19.17;12.73;;;18.50;99.90;;;;;;5069859;28;20673;-46
2022/08/27 04:59:45;;;;;;;22.10;13.27;;;18.50;99.90;;;;;;5063105;28;20201;-44
2022/08/27 05:02:12;;;;;;;20.93;13.23;;;18.50;99.90;;;;;;5070235;28;20217;-45
2022/08/27 05:04:40;;;;;;;22.27;13.50;;;18.50;99.90;;;;;;5067070;28;20826;-44
2022/08/27 05:07:08;;;;;;;17.57;13.03;;;18.50;99.90;;;;;;5062247;28;20206;-45
2022/08/27 05:09:37;;;;;;;23.57;13.43;;;18.50;99.90;;;;;;5049706;28;20190;-49
2022/08/27 05:12:04;;;;;;;19.33;12.60;;;18.40;99.90;;;;;;5080279;28;20213;-45
2022/08/27 05:14:31;;;;;;;18.73;13.30;;;18.40;99.90;;;;;;5057814;28;20207;-46
2022/08/27 05:16:59;;;;;;;19.30;12.40;;;18.40;99.90;;;;;;5064809;28;20287;-47
2022/08/27 05:19:25;;;;;;;22.77;13.00;;;18.40;99.90;;;;;;5060769;28;20211;-46
2022/08/27 05:21:53;;;;;;;19.87;13.20;;;18.40;99.90;;;;;;5075793;28;20717;-45
2022/08/27 05:24:20;;;;;;;20.50;13.30;;;18.40;99.90;;;;;;5044373;28;20206;-45
2022/08/27 05:26:49;;;;;;;18.73;13.70;;;18.40;99.90;;;;;;5070951;28;20217;-44
2022/08/27 05:29:15;;;;;;;19.13;13.30;;;18.40;99.90;;;;;;5067137;28;20205;-48
2022/08/27 05:31:43;;;;;;;20.10;13.20;;;18.40;99.90;;;;;;5062876;28;20260;-48
2022/08/27 05:34:11;;;;;;;20.63;13.47;;;18.30;99.90;;;;;;5069061;28;20277;-45
2022/08/27 05:36:39;;;;;;;18.07;13.93;;;18.30;99.90;;;;;;5071648;28;20238;-46
2022/08/27 05:39:07;;;;;;;21.83;14.03;;;18.30;99.90;;;;;;5053419;28;20217;-45
2022/08/27 05:41:34;;;;;;;19.53;13.70;;;18.30;99.90;;;;;;5061003;28;20326;-49
2022/08/27 05:44:04;;;;;;;16.77;12.40;;;18.30;99.90;;;;;;5074331;28;20255;-47
2022/08/27 05:46:31;;;;;;;21.23;14.60;;;18.30;99.90;;;;;;5064716;28;20207;-45
2022/08/27 05:49:00;;;;;;;22.73;14.20;;;18.20;99.90;;;;;;5068131;28;20932;-46
2022/08/27 05:51:29;;;;;;;19.23;13.97;;;18.20;99.90;;;;;;5070006;28;20792;-45
2022/08/27 05:53:58;;;;;;;20.87;13.87;;;18.20;99.90;;;;;;5068930;28;20190;-45
2022/08/27 05:56:27;;;;;;;20.87;13.77;;;18.20;99.90;;;;;;5049103;28;20217;-44
2022/08/27 06:01:44;;;;;;;19.30;12.93;;;18.20;99.90;;;;;;5067264;28;20702;-46
2022/08/27 06:04:12;;;;;;;22.13;13.33;;;18.20;99.90;;;;;;5068698;28;20243;-43
2022/08/27 06:06:41;;;;;;;21.13;13.83;;;18.30;99.90;;;;;;5073515;28;20193;-47
2022/08/27 06:09:10;;;;;;;20.83;13.60;;;18.30;99.90;;;;;;5068404;28;20174;-46
2022/08/27 06:11:37;;;;;;;19.43;12.83;;;18.30;99.90;;;;;;5056383;28;20226;-45
2022/08/27 06:14:05;;;;;;;21.57;13.23;;;18.30;99.90;;;;;;5065152;28;20217;-45
2022/08/27 06:16:32;;;;;;;17.20;11.97;;;18.30;99.90;;;;;;5066265;28;20209;-46
2022/08/27 06:19:00;;;;;;;23.03;13.00;;;18.20;99.90;;;;;;5068929;28;20214;-47
2022/08/27 06:21:27;;;;;;;21.70;12.43;;;18.20;99.90;;;;;;5070026;28;20225;-46
2022/08/27 06:23:54;;;;;;;19.87;12.13;;;18.20;99.90;;;;;;5065352;28;20198;-45
2022/08/27 06:26:23;;;;;;;19.17;12.20;;;18.20;99.90;;;;;;5073392;28;20202;-44
2022/08/27 06:28:50;;;;;;;20.10;11.43;;;18.20;99.90;;;;;;5060745;28;20210;-47
2022/08/27 06:31:21;;;;;;;17.47;11.77;;;18.10;99.90;;;;;;5063938;28;20283;-49
2022/08/27 06:33:50;;;;;;;20.83;12.10;;;18.10;99.90;;;;;;5071231;28;20280;-49
2022/08/27 06:36:21;;;;;;;17.70;12.83;;;18.20;99.90;;;;;;5062478;28;20210;-44
2022/08/27 06:38:48;;;;;;;17.90;11.80;;;18.20;99.90;;;;;;5073010;28;20211;-48
2022/08/27 06:41:17;;;;;;;17.00;11.50;;;18.20;99.90;;;;;;5064052;28;20221;-51
2022/08/27 06:43:45;;;;;;;18.20;10.73;;;18.10;99.90;;;;;;5047334;28;20213;-47
2022/08/27 06:46:15;;;;;;;19.97;10.77;;;18.10;99.90;;;;;;5072476;28;20201;-46
2022/08/27 06:48:43;;;;;;;21.37;11.00;;;18.10;99.90;;;;;;5070412;28;20281;-46
2022/08/27 06:51:16;;;;;;;24.13;11.37;;;18.10;99.90;;;;;;5075534;28;20210;-46
2022/08/27 06:53:46;;;;;;;23.77;11.50;;;18.10;99.90;;;;;;5073890;28;20211;-48
2022/08/27 06:56:15;;;;;;;20.07;11.20;;;18.10;99.90;;;;;;5069998;28;20201;-44
2022/08/27 06:58:42;;;;;;;19.40;11.13;;;18.00;99.90;;;;;;5061880;28;20697;-44
2022/08/27 07:01:14;;;;;;;17.00;10.10;;;18.00;99.90;;;;;;5071061;28;20210;-45
2022/08/27 07:03:42;;;;;;;19.53;10.30;;;18.00;99.90;;;;;;5067986;28;20281;-44
2022/08/27 07:06:10;;;;;;;18.67;10.70;;;18.10;99.90;;;;;;5068564;28;20197;-44
2022/08/27 07:08:37;;;;;;;19.60;9.43;;;18.00;99.90;;;;;;5073307;28;20277;-48
2022/08/27 07:11:05;;;;;;;22.73;9.83;;;18.00;99.90;;;;;;5067530;28;20457;-48
2022/08/27 07:13:32;;;;;;;17.57;9.43;;;18.00;99.90;;;;;;5058464;28;20210;-45
2022/08/27 07:16:04;;;;;;;13.83;9.30;;;18.00;99.90;;;;;;5065309;28;20186;-44
2022/08/27 07:18:31;;;;;;;17.53;8.60;;;18.00;99.90;;;;;;5080686;28;20301;-47
2022/08/27 07:20:57;;;;;;;13.93;7.87;;;17.90;99.90;;;;;;5059280;28;20202;-44
2022/08/27 07:23:24;;;;;;;14.67;8.00;;;17.90;99.90;;;;;;5068062;28;20585;-45
2022/08/27 07:25:51;;;;;;;17.43;8.10;;;17.80;99.90;;;;;;5072083;28;20198;-45
2022/08/27 07:28:19;;;;;;;13.00;8.00;;;17.80;99.90;;;;;;5058178;28;20299;-45
2022/08/27 07:30:46;;;;;;;14.77;7.50;;;17.80;99.90;;;;;;5066204;28;20199;-44
2022/08/27 07:33:12;;;;;;;17.17;8.43;;;17.80;99.90;;;;;;5069734;28;20224;-44
2022/08/27 07:35:40;;;;;;;15.33;7.63;;;17.80;99.90;;;;;;5064644;28;20566;-47
2022/08/27 07:38:09;;;;;;;15.23;7.93;;;17.80;99.90;;;;;;5070242;28;20210;-48
2022/08/27 07:40:36;;;;;;;15.17;7.80;;;17.80;99.90;;;;;;5080262;28;20205;-45
2022/08/27 07:45:54;;;;;;;17.70;8.10;;;17.80;99.90;;;;;;5056338;28;20208;-46
2022/08/27 07:48:22;;;;;;;15.10;7.83;;;17.90;99.90;;;;;;5072664;28;20202;-49
2022/08/27 07:50:49;;;;;;;15.50;7.63;;;17.80;99.90;;;;;;5067298;28;20624;-47
2022/08/27 07:53:15;;;;;;;15.17;7.93;;;17.90;99.90;;;;;;5070147;28;20216;-47
2022/08/27 07:55:43;;;;;;;13.80;7.33;;;17.90;99.90;;;;;;5074712;28;20203;-46
2022/08/27 07:58:12;;;;;;;14.83;8.30;;;17.90;99.90;;;;;;5068253;28;20888;-46
2022/08/27 08:00:41;;;;;;;15.50;8.53;;;17.90;99.90;;;;;;5059902;28;20221;-45
2022/08/27 08:03:09;;;;;;;12.63;6.90;;;17.80;99.90;;;;;;5074711;28;20245;-47
2022/08/27 08:05:40;;;;;;;19.33;8.40;;;17.90;99.90;;;;;;5085216;28;20202;-48
2022/08/27 08:08:07;;;;;;;19.83;7.53;;;17.90;99.90;;;;;;5082366;28;20189;-47
2022/08/27 08:10:35;;;;;;;15.63;7.23;;;17.90;99.90;;;;;;5085277;28;20190;-45
2022/08/27 08:13:04;;;;;;;14.87;6.73;;;17.90;99.90;;;;;;5080950;28;20210;-45
2022/08/27 08:15:31;;;;;;;12.57;6.87;;;18.00;99.90;;;;;;5062514;28;20221;-42
2022/08/27 08:17:58;;;;;;;12.10;6.23;;;18.00;99.90;;;;;;5074765;28;20197;-44
2022/08/27 08:20:26;;;;;;;14.80;6.47;;;18.00;99.90;;;;;;5073607;28;20221;-43
2022/08/27 08:22:54;;;;;;;11.43;5.90;;;18.10;99.90;;;;;;5080679;28;20222;-43
2022/08/27 08:25:20;;;;;;;11.43;6.17;;;18.00;99.90;;;;;;5076612;28;20194;-45
2022/08/27 08:27:47;;;;;;;14.50;6.33;;;18.00;99.90;;;;;;5070380;28;20205;-44
2022/08/27 08:30:15;;;;;;;11.63;6.03;;;18.00;99.90;;;;;;5054164;28;20210;-43
2022/08/27 08:32:42;;;;;;;10.17;5.97;;;18.10;99.90;;;;;;5070619;28;20226;-45
2022/08/27 08:35:10;;;;;;;12.00;6.43;;;18.10;99.90;;;;;;5061295;28;20230;-43
2022/08/27 08:37:38;;;;;;;13.10;6.47;;;18.10;99.90;;;;;;5064796;28;20198;-43
2022/08/27 08:40:06;;;;;;;13.80;6.67;;;18.10;99.90;;;;;;5062019;28;20206;-42
2022/08/27 08:42:39;;;;;;;10.97;6.07;;;18.10;99.90;;;;;;5064804;28;20229;-42
2022/08/27 08:45:07;;;;;;;14.63;6.53;;;18.20;99.90;;;;;;5061002;28;20202;-45
2022/08/27 08:47:44;;;;;;;8.53;5.97;;;18.20;99.90;;;;;;5061566;28;20205;-44
2022/08/27 08:50:13;;;;;;;8.57;6.10;;;18.20;99.90;;;;;;5072825;28;20280;-45
2022/08/27 08:52:50;;;;;;;10.63;6.23;;;18.20;99.90;;;;;;5063999;28;20215;-44
2022/08/27 08:55:39;;;;;;;10.80;6.00;;;18.20;99.90;;;;;;5068173;28;20203;-42
2022/08/27 08:58:16;;;;;;;10.27;6.10;;;18.30;99.90;;;;;;5061287;28;20822;-47
2022/08/27 09:00:45;;;;;;;11.37;6.00;;;18.30;99.90;;;;;;5057265;28;20218;-45
2022/08/27 09:03:13;;;;;;;11.13;6.07;;;18.20;99.90;;;;;;5067512;28;20217;-47
2022/08/27 09:05:47;;;;;;;14.43;6.97;;;18.30;99.90;;;;;;5065141;28;20190;-46
2022/08/27 09:08:20;;;;;;;13.80;6.10;;;18.30;99.90;;;;;;5062369;28;20183;-48
2022/08/27 09:10:53;;;;;;;14.17;7.10;;;18.30;99.90;;;;;;5062385;28;20195;-43
2022/08/27 09:13:24;;;;;;;10.60;6.00;;;18.30;99.90;;;;;;5063593;28;20237;-45
2022/08/27 09:15:55;;;;;;;12.97;6.20;;;18.30;99.90;;;;;;5072950;28;20198;-44
2022/08/27 09:18:22;;;;;;;14.47;6.10;;;18.30;99.90;;;;;;5057862;28;20199;-47
2022/08/27 09:20:54;;;;;;;10.97;5.90;;;18.30;99.90;;;;;;5074586;28;20269;-45
2022/08/27 09:23:30;;;;;;;12.03;5.87;;;18.40;99.90;;;;;;5066461;28;20209;-44
2022/08/27 09:25:57;;;;;;;10.73;5.60;;;18.40;99.90;;;;;;5072264;28;20196;-43
2022/08/27 09:31:15;;;;;;;9.30;5.60;;;18.40;99.90;;;;;;5062317;28;20221;-44
2022/08/27 09:33:42;;;;;;;11.10;5.30;;;18.50;99.90;;;;;;5053159;28;20260;-43
2022/08/27 09:36:13;;;;;;;13.77;5.40;;;18.50;99.90;;;;;;5067419;28;20197;-44
2022/08/27 09:38:52;;;;;;;11.17;5.00;;;18.40;99.90;;;;;;5062913;28;20269;-45
2022/08/27 09:41:23;;;;;;;12.23;5.70;;;18.40;99.90;;;;;;5063938;28;20222;-43
2022/08/27 09:43:57;;;;;;;13.27;5.13;;;18.40;99.90;;;;;;5079482;28;20205;-46
2022/08/27 09:46:25;;;;;;;12.07;5.07;;;18.40;99.90;;;;;;5083441;28;20201;-44
2022/08/27 09:48:52;;;;;;;12.60;5.50;;;18.40;99.90;;;;;;5059165;28;20215;-44
2022/08/27 09:51:21;;;;;;;12.87;6.50;;;18.50;99.90;;;;;;5069119;28;20214;-43
2022/08/27 09:53:53;;;;;;;10.23;5.03;;;18.50;99.90;;;;;;5065997;28;20202;-45
2022/08/27 09:56:28;;;;;;;10.77;5.00;;;18.50;99.90;;;;;;5074447;28;20648;-43
2022/08/27 09:59:01;;;;;;;11.00;4.63;;;18.50;99.90;;;;;;5062844;28;20285;-46
2022/08/27 10:01:30;;;;;;;11.03;5.30;;;18.50;99.90;;;;;;5063906;28;20276;-44
2022/08/27 10:04:09;;;;;;;8.93;5.07;;;18.50;99.90;;;;;;5046651;28;20223;-45
2022/08/27 10:06:37;;;;;;;10.93;5.03;;;18.50;99.90;;;;;;5073021;28;20588;-46
2022/08/27 10:09:12;;;;;;;8.13;5.40;;;18.50;99.90;;;;;;5061182;28;20187;-45
2022/08/27 10:11:45;;;;;;;12.20;5.63;;;18.50;99.90;;;;;;5081988;28;20223;-44
2022/08/27 10:14:20;;;;;;;13.87;5.77;;;18.40;99.90;;;;;;5079956;28;20919;-47
2022/08/27 10:16:58;;;;;;;11.03;5.10;;;18.50;99.90;;;;;;5080601;28;20201;-44
2022/08/27 10:19:37;;;;;;;9.33;5.47;;;18.50;99.90;;;;;;5062283;28;20206;-43
2022/08/27 10:22:11;;;;;;;12.17;5.70;;;18.50;99.90;;;;;;5064890;28;20205;-44
2022/08/27 10:24:54;;;;;;;14.30;5.00;;;18.50;99.90;;;;;;5071261;28;20194;-43
2022/08/27 10:27:29;;;;;;;10.63;5.20;;;18.50;99.90;;;;;;5073211;28;20198;-43
2022/08/27 10:30:03;;;;;;;12.03;5.57;;;18.50;99.90;;;;;;5066006;28;20198;-45
2022/08/27 10:32:52;;;;;;;9.20;4.57;;;18.50;99.90;;;;;;5063188;28;20217;-48
2022/08/27 10:35:22;;;;;;;7.53;4.80;;;18.50;99.90;;;;;;5053138;28;20259;-43
2022/08/27 10:37:59;;;;;;;15.53;5.07;;;18.60;99.90;;;;;;5072552;28;20199;-47
2022/08/27 10:40:32;;;;;;;10.87;5.20;;;18.70;99.90;;;;;;5061752;28;20588;-48
2022/08/27 10:43:17;;;;;;;10.53;4.83;;;18.80;99.90;;;;;;5058934;28;20285;-44
2022/08/27 10:45:51;;;;;;;10.30;4.90;;;18.80;99.90;;;;;;5061378;28;20611;-44
2022/08/27 10:48:24;;;;;;;11.97;5.63;;;18.90;99.90;;;;;;5067539;28;20273;-45
2022/08/27 10:50:56;;;;;;;11.87;6.07;;;18.80;99.90;;;;;;5062187;28;20199;-43
2022/08/27 10:53:30;;;;;;;12.97;5.93;;;18.90;99.90;;;;;;5064301;28;20954;-45
2022/08/27 10:56:11;;;;;;;9.07;5.83;;;18.90;99.90;;;;;;5064418;28;20195;-44
2022/08/27 10:58:56;;;;;;;11.83;5.97;;;19.00;99.90;;;;;;5071285;28;20872;-43
2022/08/27 11:01:36;;;;;;;11.33;6.30;;;18.90;99.90;;;;;;5062731;28;20225;-43
2022/08/27 11:04:06;;;;;;;10.07;5.63;;;18.90;99.90;;;;;;5065697;28;20802;-44
2022/08/27 11:06:38;;;;;;;10.03;4.70;;;18.90;99.90;;;;;;5065306;28;20198;-44
2022/08/27 11:09:09;;;;;;;8.93;5.43;;;18.90;99.90;;;;;;5065439;28;20211;-47
2022/08/27 11:11:42;;;;;;;8.40;5.37;;;19.00;99.90;;;;;;5066847;28;20581;-44
2022/08/27 11:14:27;;;;;;;5.73;4.47;;;19.10;99.90;;;;;;5065184;28;20273;-44
2022/08/27 11:17:00;;;;;;;7.20;4.17;;;19.10;99.90;;;;;;5063147;28;20201;-47
2022/08/27 11:19:33;;;;;;;10.87;4.43;;;19.20;99.90;;;;;;5072709;28;20206;-46
2022/08/27 11:22:08;;;;;;;6.60;4.27;;;19.20;99.90;;;;;;5060024;28;20237;-45
2022/08/27 11:24:41;;;;;;;9.07;3.90;;;19.30;99.90;;;;;;5053916;28;20306;-44
2022/08/27 11:27:10;;;;;;;9.30;3.30;;;19.30;99.90;;;;;;5071177;28;20189;-44
2022/08/27 11:29:46;;;;;;;7.00;3.10;;;19.30;99.90;;;;;;5065235;28;20202;-49
2022/08/27 11:32:20;;;;;;;6.57;3.10;;;19.20;99.90;;;;;;5065037;28;20904;-46
2022/08/27 11:34:51;;;;;;;6.73;3.60;;;19.10;99.90;;;;;;5072295;28;20656;-44
2022/08/27 11:37:30;;;;;;;10.90;4.27;;;19.10;99.90;;;;;;5065521;28;20201;-44
2022/08/27 11:40:21;;;;;;;6.40;2.57;;;19.20;99.90;;;;;;5055729;28;20218;-44
2022/08/27 11:42:51;;;;;;;7.67;3.30;;;19.30;99.90;;;;;;5073745;28;20253;-46
2022/08/27 11:45:23;;;;;;;8.77;2.83;;;19.30;99.90;;;;;;5076373;28;20207;-44
2022/08/27 11:47:55;;;;;;;5.90;2.83;;;19.40;99.90;;;;;;5073789;28;20202;-45
2022/08/27 11:50:25;;;;;;;6.07;3.37;;;19.60;99.90;;;;;;5076774;28;20219;-44
2022/08/27 11:52:59;;;;;;;6.90;4.90;;;19.70;99.90;;;;;;5065073;28;20226;-46
2022/08/27 11:55:30;;;;;;;6.40;3.17;;;19.70;99.90;;;;;;5058512;28;20205;-47
2022/08/27 11:58:10;;;;;;;7.03;2.83;;;19.80;99.90;;;;;;5073337;28;20186;-45
2022/08/27 12:00:40;;;;;;;8.27;3.87;;;19.90;99.90;;;;;;5070044;28;20950;-44
2022/08/27 12:03:10;;;;;;;6.57;3.23;;;19.90;99.90;;;;;;5069010;28;20217;-44
2022/08/27 12:05:41;;;;;;;8.30;2.93;;;19.90;99.90;;;;;;5071636;28;20203;-47
2022/08/27 12:08:19;;;;;;;8.77;3.10;;;20.10;99.90;;;;;;5071173;28;20186;-46
2022/08/27 12:10:58;;;;;;;6.00;2.30;;;20.20;99.90;;;;;;5057352;28;20202;-44
2022/08/27 12:13:36;;;;;;;5.80;2.07;;;20.20;99.90;;;;;;5072689;28;20185;-44
2022/08/27 12:16:15;;;;;;;3.07;2.47;;;20.30;99.90;;;;;;5074994;28;20283;-46
2022/08/27 12:18:57;;;;;;;6.73;2.80;;;20.40;99.90;;;;;;5072878;28;20659;-47
2022/08/27 12:21:35;;;;;;;5.70;2.53;;;20.50;99.90;;;;;;5073108;28;20234;-44
2022/08/27 12:24:20;;;;;;;6.27;2.80;;;20.60;99.90;;;;;;5065048;28;20312;-44
2022/08/27 12:26:57;;;;;;;7.53;2.70;;;20.80;99.90;;;;;;5060779;28;20201;-49
2022/08/27 12:29:30;;;;;;;4.43;2.50;;;20.80;99.90;;;;;;5070536;28;20194;-45
2022/08/27 12:32:09;;;;;;;7.13;2.47;;;21.00;99.90;;;;;;5070329;28;20879;-47
2022/08/27 12:34:47;;;;;;;4.90;1.60;;;21.20;99.90;;;;;;5075760;28;20208;-44
2022/08/27 12:37:14;;;;;;;4.30;2.00;;;21.40;99.90;;;;;;5073193;28;20210;-44
2022/08/27 12:39:48;;;;;;;7.13;2.38;;;21.50;99.90;;;;;;5071191;28;20763;-45
2022/08/27 12:42:18;;;;;;;8.45;2.65;;;21.60;99.90;;;;;;5053334;28;20325;-48
2022/08/27 12:44:47;;;;;;;5.73;1.90;;;21.90;99.90;;;;;;5070944;28;20208;-45
2022/08/27 12:47:15;;;;;;;7.00;1.90;;;21.90;99.90;;;;;;5072066;28;20221;-43
2022/08/27 12:49:47;;;;;;;4.13;2.17;;;22.00;99.90;;;;;;5071511;28;20671;-43
2022/08/27 12:52:23;;;;;;;4.68;2.00;;;22.00;99.90;;;;;;5068410;28;20213;-45
2022/08/27 12:55:01;;;;;;;4.18;1.77;;;22.00;99.90;;;;;;5070187;28;20201;-45